createdAt,value
2022-10-04T00:02:19.756Z,99582.75
2022-10-04T00:05:05.462Z,99581.63
2022-10-04T00:07:46.809Z,99577.52
2022-10-04T00:10:25.941Z,99568.05
2022-10-04T00:13:02.311Z,99575.96
2022-10-04T00:15:37.745Z,99579.64
2022-10-04T00:18:32.524Z,99584.39
2022-10-04T00:21:08.116Z,99591.05
2022-10-04T00:23:44.704Z,99590.80
2022-10-04T00:26:28.180Z,99587.88
2022-10-04T00:29:01.133Z,99578.59
2022-10-04T00:31:34.528Z,99571.59
2022-10-04T00:34:15.365Z,99568.73
2022-10-04T00:36:56.874Z,99571.53
2022-10-04T00:39:39.864Z,99574.64
2022-10-04T00:42:20.193Z,99567.25
2022-10-04T00:45:03.776Z,99573.55
2022-10-04T00:47:44.150Z,99580.02
2022-10-04T00:50:30.656Z,99580.77
2022-10-04T00:53:05.639Z,99628.58
2022-10-04T00:55:49.909Z,99631.95
2022-10-04T00:58:33.696Z,99613.56
2022-10-04T01:01:07.752Z,99611.73
2022-10-04T01:03:44.343Z,99608.94
2022-10-04T01:06:19.280Z,99622.09
2022-10-04T01:08:55.622Z,99604.34
2022-10-04T01:11:35.025Z,99610.70
2022-10-04T01:14:18.264Z,99603.09
2022-10-04T01:16:51.891Z,99587.67
2022-10-04T01:19:30.241Z,99585.78
2022-10-04T01:22:18.946Z,99584.59
2022-10-04T01:24:52.919Z,99587.94
2022-10-04T01:27:42.469Z,99601.52
2022-10-04T01:30:18.104Z,99603.38
2022-10-04T01:32:51.086Z,99590.61
2022-10-04T01:35:24.379Z,99581.39
2022-10-04T01:37:57.569Z,99579.20
2022-10-04T01:40:32.113Z,99578.25
2022-10-04T01:43:08.457Z,99589.47
2022-10-04T01:45:45.350Z,99591.27
2022-10-04T01:48:23.457Z,99593.61
2022-10-04T01:51:07.297Z,99598.08
2022-10-04T01:53:48.241Z,99592.47
2022-10-04T01:56:28.757Z,99582.50
2022-10-04T01:59:07.617Z,99579.55
2022-10-04T02:01:50.701Z,99579.88
2022-10-04T02:04:34.543Z,99579.06
2022-10-04T02:07:13.764Z,99579.86
2022-10-04T02:09:51.062Z,99586.74
2022-10-04T02:12:24.803Z,99586.30
2022-10-04T02:15:02.150Z,99579.25
2022-10-04T02:17:43.181Z,99583.67
2022-10-04T02:20:21.925Z,99590.61
2022-10-04T02:23:02.131Z,99583.24
2022-10-04T02:25:37.047Z,99587.88
2022-10-04T02:28:14.132Z,99595.34
2022-10-04T02:31:10.750Z,99593.86
2022-10-04T02:33:46.810Z,99585.91
2022-10-04T02:36:21.438Z,99598.09
2022-10-04T02:39:04.258Z,99594.77
2022-10-04T02:41:50.761Z,99592.79
2022-10-04T02:44:58.150Z,99592.30
2022-10-04T02:47:47.132Z,99592.59
2022-10-04T02:50:40.333Z,99591.52
2022-10-04T02:53:26.901Z,99598.89
2022-10-04T02:56:00.258Z,99598.34
2022-10-04T02:58:34.696Z,99599.20
2022-10-04T03:01:07.765Z,99606.20
2022-10-04T03:03:42.307Z,99606.20
2022-10-04T03:06:19.022Z,99615.44
2022-10-04T03:08:59.705Z,99606.92
2022-10-04T03:11:36.516Z,99606.27
2022-10-04T03:14:16.300Z,99603.28
2022-10-04T03:16:53.993Z,99593.31
2022-10-04T03:19:29.115Z,99601.72
2022-10-04T03:22:06.326Z,99607.72
2022-10-04T03:24:48.010Z,99609.09
2022-10-04T03:27:33.388Z,99614.70
2022-10-04T03:30:07.634Z,99615.95
2022-10-04T03:32:41.839Z,99599.30
2022-10-04T03:35:25.553Z,99603.54
2022-10-04T03:37:59.927Z,99609.17
2022-10-04T03:40:34.655Z,99607.92
2022-10-04T03:43:06.416Z,99607.64
2022-10-04T03:45:39.483Z,99607.27
2022-10-04T03:48:16.315Z,99611.66
2022-10-04T03:50:50.631Z,99616.13
2022-10-04T03:53:42.378Z,99617.98
2022-10-04T03:56:35.436Z,99607.56
2022-10-04T03:59:10.182Z,99608.55
2022-10-04T04:02:09.773Z,99607.67
2022-10-04T04:04:53.767Z,99603.63
2022-10-04T04:07:47.064Z,99611.06
2022-10-04T04:10:32.880Z,99607.62
2022-10-04T04:13:28.016Z,99611.01
2022-10-04T04:16:03.516Z,99612.80
2022-10-04T04:18:39.667Z,99610.18
2022-10-04T04:21:16.389Z,99616.11
2022-10-04T04:24:09.782Z,99612.41
2022-10-04T04:26:48.989Z,99613.94
2022-10-04T04:29:50.263Z,99613.79
2022-10-04T04:32:29.017Z,99612.19
2022-10-04T04:35:08.706Z,99610.56
2022-10-04T04:37:41.346Z,99601.00
2022-10-04T04:40:21.024Z,99608.93
2022-10-04T04:42:54.650Z,99606.84
2022-10-04T04:45:32.498Z,99610.34
2022-10-04T04:48:05.269Z,99615.22
2022-10-04T04:50:41.450Z,99624.52
2022-10-04T04:53:22.474Z,99624.06
2022-10-04T04:56:04.848Z,99634.66
2022-10-04T04:58:42.770Z,99630.41
2022-10-04T05:01:28.669Z,99636.20
2022-10-04T05:04:15.321Z,99643.26
2022-10-04T05:07:07.240Z,99647.25
2022-10-04T05:09:40.775Z,99648.08
2022-10-04T05:12:19.780Z,99641.13
2022-10-04T05:14:55.355Z,99636.75
2022-10-04T05:17:33.826Z,99644.25
2022-10-04T05:20:08.185Z,99650.09
2022-10-04T05:22:44.743Z,99652.00
2022-10-04T05:25:22.324Z,99657.41
2022-10-04T05:27:56.648Z,99662.49
2022-10-04T05:30:55.683Z,99668.84
2022-10-04T05:33:50.409Z,99661.61
2022-10-04T05:36:43.808Z,99657.80
2022-10-04T05:39:53.148Z,99659.83
2022-10-04T05:42:48.755Z,99658.63
2022-10-04T05:45:25.538Z,99661.84
2022-10-04T05:48:01.765Z,99665.87
2022-10-04T05:50:43.202Z,99665.45
2022-10-04T05:53:35.935Z,99670.65
2022-10-04T05:56:22.397Z,99673.22
2022-10-04T05:59:26.996Z,99687.72
2022-10-04T06:02:10.614Z,99687.29
2022-10-04T06:05:15.627Z,99696.08
2022-10-04T06:07:59.938Z,99697.06
2022-10-04T06:10:55.246Z,99693.58
2022-10-04T06:14:07.595Z,99688.86
2022-10-04T06:17:05.838Z,99689.17
2022-10-04T06:19:58.403Z,99691.62
2022-10-04T06:22:32.984Z,99694.45
2022-10-04T06:25:10.705Z,99701.22
2022-10-04T06:27:54.273Z,99697.95
2022-10-04T06:30:28.024Z,99693.67
2022-10-04T06:33:29.503Z,99695.23
2022-10-04T06:36:44.075Z,99689.26
2022-10-04T06:39:33.364Z,99692.17
2022-10-04T06:42:35.405Z,99689.45
2022-10-04T06:45:41.799Z,99701.08
2022-10-04T06:48:34.195Z,99703.50
2022-10-04T06:51:41.288Z,99698.82
2022-10-04T06:54:56.315Z,99695.88
2022-10-04T06:58:07.144Z,99704.31
2022-10-04T07:01:26.969Z,99708.65
2022-10-04T07:04:24.944Z,99723.12
2022-10-04T07:07:30.627Z,99720.00
2022-10-04T07:10:23.859Z,99718.73
2022-10-04T07:13:07.315Z,99713.52
2022-10-04T07:15:57.890Z,99707.83
2022-10-04T07:18:38.990Z,99709.19
2022-10-04T07:21:15.830Z,99715.44
2022-10-04T07:24:01.259Z,99709.88
2022-10-04T07:26:49.492Z,99708.66
2022-10-04T07:29:29.443Z,99707.34
2022-10-04T07:32:12.235Z,99709.88
2022-10-04T07:34:58.503Z,99709.45
2022-10-04T07:37:36.129Z,99710.85
2022-10-04T07:40:13.290Z,99709.33
2022-10-04T07:42:56.568Z,99707.34
2022-10-04T07:45:43.110Z,99703.41
2022-10-04T07:48:27.421Z,99700.94
2022-10-04T07:51:25.476Z,99699.05
2022-10-04T07:54:05.561Z,99697.55
2022-10-04T07:56:52.362Z,99697.24
2022-10-04T07:59:36.886Z,99694.30
2022-10-04T08:02:38.059Z,99698.41
2022-10-04T08:05:30.308Z,99695.78
2022-10-04T08:08:48.668Z,99698.97
2022-10-04T08:11:49.023Z,99690.44
2022-10-04T08:14:49.283Z,99704.89
2022-10-04T08:17:56.794Z,99697.98
2022-10-04T08:21:00.128Z,99704.32
2022-10-04T08:23:55.704Z,99706.08
2022-10-04T08:26:51.719Z,99703.44
2022-10-04T08:29:51.528Z,99701.72
2022-10-04T08:32:55.049Z,99702.53
2022-10-04T08:35:40.328Z,99711.02
2022-10-04T08:38:40.885Z,99707.73
2022-10-04T08:41:58.992Z,99715.06
2022-10-04T08:44:45.192Z,99714.05
2022-10-04T08:47:28.826Z,99712.54
2022-10-04T08:50:31.453Z,99711.80
2022-10-04T08:53:16.624Z,99714.14
2022-10-04T08:56:09.087Z,99721.62
2022-10-04T08:59:00.596Z,99719.82
2022-10-04T09:01:50.071Z,99720.37
2022-10-04T09:04:53.310Z,99714.25
2022-10-04T09:08:06.105Z,99721.86
2022-10-04T09:10:59.586Z,99721.93
2022-10-04T09:13:58.604Z,99722.00
2022-10-04T09:16:47.291Z,99723.39
2022-10-04T09:19:55.372Z,99725.72
2022-10-04T09:22:55.868Z,99731.47
2022-10-04T09:25:36.168Z,99731.12
2022-10-04T09:28:53.085Z,99735.63
2022-10-04T09:31:55.385Z,99741.35
2022-10-04T09:35:12.233Z,99739.05
2022-10-04T09:38:08.269Z,99734.24
2022-10-04T09:41:04.135Z,99739.22
2022-10-04T09:43:56.640Z,99747.77
2022-10-04T09:46:47.971Z,99746.99
2022-10-04T09:49:47.722Z,99745.33
2022-10-04T09:52:49.410Z,99738.25
2022-10-04T09:55:52.914Z,99744.38
2022-10-04T09:58:50.003Z,99742.12
2022-10-04T10:01:51.523Z,99745.27
2022-10-04T10:05:02.162Z,99740.92
2022-10-04T10:07:56.058Z,99739.64
2022-10-04T10:11:21.449Z,99743.19
2022-10-04T10:14:23.712Z,99738.83
2022-10-04T10:17:07.042Z,99741.53
2022-10-04T10:20:18.352Z,99744.23
2022-10-04T10:23:23.543Z,99743.76
2022-10-04T10:26:31.038Z,99745.95
2022-10-04T10:29:24.820Z,99742.06
2022-10-04T10:32:17.043Z,99744.45
2022-10-04T10:35:09.621Z,99736.33
2022-10-04T10:37:53.174Z,99740.02
2022-10-04T10:40:31.946Z,99743.22
2022-10-04T10:43:09.671Z,99739.78
2022-10-04T10:46:31.439Z,99738.52
2022-10-04T10:49:22.406Z,99741.16
2022-10-04T10:52:34.483Z,99743.95
2022-10-04T10:55:30.394Z,99743.64
2022-10-04T10:58:17.555Z,99743.83
2022-10-04T11:00:57.797Z,99742.20
2022-10-04T11:04:07.523Z,99742.78
2022-10-04T11:07:08.149Z,99746.79
2022-10-04T11:10:07.175Z,99747.75
2022-10-04T11:13:05.325Z,99754.39
2022-10-04T11:16:19.491Z,99752.20
2022-10-04T11:19:48.323Z,99758.82
2022-10-04T11:22:44.946Z,99753.17
2022-10-04T11:26:00.631Z,99755.86
2022-10-04T11:28:46.003Z,99757.14
2022-10-04T11:31:34.321Z,99760.09
2022-10-04T11:34:20.351Z,99757.86
2022-10-04T11:37:21.115Z,99762.71
2022-10-04T11:40:33.754Z,99765.37
2022-10-04T11:43:34.042Z,99767.56
2022-10-04T11:46:23.568Z,99768.44
2022-10-04T11:49:17.329Z,99765.83
2022-10-04T11:52:39.799Z,99766.73
2022-10-04T11:55:44.410Z,99771.14
2022-10-04T11:58:33.392Z,99781.17
2022-10-04T12:01:41.105Z,99774.86
2022-10-04T12:04:56.697Z,99780.55
2022-10-04T12:07:56.429Z,99780.91
2022-10-04T12:10:39.736Z,99781.67
2022-10-04T12:13:50.985Z,99783.81
2022-10-04T12:16:41.328Z,99786.88
2022-10-04T12:19:52.652Z,99789.08
2022-10-04T12:22:49.127Z,99791.75
2022-10-04T12:25:47.474Z,99791.83
2022-10-04T12:28:34.880Z,99787.89
2022-10-04T12:31:24.590Z,99796.33
2022-10-04T12:34:21.824Z,99792.83
2022-10-04T12:37:22.375Z,99797.67
2022-10-04T12:40:25.215Z,99801.64
2022-10-04T12:43:43.723Z,99804.23
2022-10-04T12:46:36.140Z,99802.87
2022-10-04T12:49:28.697Z,99804.20
2022-10-04T12:52:20.492Z,99798.06
2022-10-04T12:55:22.438Z,99812.22
2022-10-04T12:58:05.809Z,99811.34
2022-10-04T13:00:43.355Z,99811.69
2022-10-04T13:03:44.670Z,99808.98
2022-10-04T13:06:30.860Z,99811.61
2022-10-04T13:09:18.101Z,99811.96
2022-10-04T13:12:02.295Z,99820.30
2022-10-04T13:15:00.458Z,99809.67
2022-10-04T13:18:04.399Z,99818.84
2022-10-04T13:21:00.071Z,99821.71
2022-10-04T13:23:46.774Z,99825.80
2022-10-04T13:26:46.082Z,99832.16
2022-10-04T13:29:44.718Z,99839.06
2022-10-04T13:32:29.971Z,99836.80
2022-10-04T13:35:27.681Z,99841.17
2022-10-04T13:38:39.742Z,99837.14
2022-10-04T13:41:17.699Z,99848.01
2022-10-04T13:44:24.125Z,99849.63
2022-10-04T13:47:21.112Z,99856.47
2022-10-04T13:50:17.676Z,99862.89
2022-10-04T13:53:25.065Z,99866.16
2022-10-04T13:56:37.355Z,99863.73
2022-10-04T13:59:46.383Z,99878.09
2022-10-04T14:03:02.263Z,99877.50
2022-10-04T14:05:58.147Z,99880.02
2022-10-04T14:08:57.900Z,99891.34
2022-10-04T14:12:04.020Z,99893.38
2022-10-04T14:14:47.545Z,99888.91
2022-10-04T14:17:52.216Z,99896.22
2022-10-04T14:21:16.588Z,99904.84
2022-10-04T14:24:12.483Z,99909.95
2022-10-04T14:27:05.060Z,99906.18
2022-10-04T14:30:08.541Z,99908.65
2022-10-04T14:33:37.648Z,99912.86
2022-10-04T14:36:51.253Z,99917.45
2022-10-04T14:40:02.289Z,99929.93
2022-10-04T14:43:04.269Z,99933.69
2022-10-04T14:46:24.679Z,99944.84
2022-10-04T14:49:27.974Z,99948.61
2022-10-04T14:52:33.891Z,99958.88
2022-10-04T14:55:41.741Z,99956.81
2022-10-04T14:58:22.329Z,99963.11
2022-10-04T15:01:17.795Z,99971.98
2022-10-04T15:04:32.771Z,99966.91
2022-10-04T15:07:32.607Z,99978.89
2022-10-04T15:10:19.636Z,99984.28
2022-10-04T15:13:23.616Z,99999.33
2022-10-04T15:16:18.935Z,100002.48
2022-10-04T15:19:00.845Z,100003.09
2022-10-04T15:21:58.024Z,100013.83
2022-10-04T15:24:47.346Z,100020.64
2022-10-04T15:27:50.655Z,100026.11
2022-10-04T15:30:40.398Z,100035.95
2022-10-04T15:33:42.158Z,100033.81
2022-10-04T15:36:45.947Z,100045.91
2022-10-04T15:39:33.936Z,100050.39
2022-10-04T15:42:26.022Z,100058.42
2022-10-04T15:45:19.024Z,100054.73
2022-10-04T15:48:23.374Z,100060.63
2022-10-04T15:51:17.715Z,100068.45
2022-10-04T15:54:13.799Z,100076.59
2022-10-04T15:57:00.290Z,100088.23
2022-10-04T15:59:59.655Z,100087.99
2022-10-04T16:02:47.495Z,100093.49
2022-10-04T16:05:43.362Z,100099.32
2022-10-04T16:09:07.938Z,100117.06
2022-10-04T16:11:55.671Z,100111.63
2022-10-04T16:14:48.895Z,100120.13
2022-10-04T16:17:29.430Z,100125.66
2022-10-04T16:20:23.787Z,100128.52
2022-10-04T16:23:24.596Z,100129.63
2022-10-04T16:26:16.281Z,100133.45
2022-10-04T16:29:05.265Z,100136.30
2022-10-04T16:32:05.541Z,100141.35
2022-10-04T16:35:01.164Z,100147.72
2022-10-04T16:37:44.361Z,100147.52
2022-10-04T16:40:54.727Z,100142.14
2022-10-04T16:43:32.718Z,100154.17
2022-10-04T16:46:20.363Z,100156.59
2022-10-04T16:49:05.293Z,100163.45
2022-10-04T16:51:53.239Z,100165.52
2022-10-04T16:54:50.973Z,100157.86
2022-10-04T16:57:28.009Z,100165.17
2022-10-04T17:00:05.911Z,100169.26
2022-10-04T17:02:52.071Z,100172.03
2022-10-04T17:05:54.416Z,100177.00
2022-10-04T17:08:50.248Z,100184.16
2022-10-04T17:12:06.245Z,100183.59
2022-10-04T17:14:46.436Z,100187.74
2022-10-04T17:17:47.640Z,100192.77
2022-10-04T17:21:02.321Z,100190.78
2022-10-04T17:23:48.725Z,100190.95
2022-10-04T17:26:42.204Z,100198.22
2022-10-04T17:29:26.190Z,100202.42
2022-10-04T17:32:35.993Z,100205.79
2022-10-04T17:35:39.379Z,100202.06
2022-10-04T17:38:39.306Z,100205.35
2022-10-04T17:41:35.196Z,100207.44
2022-10-04T17:44:47.736Z,100208.17
2022-10-04T17:47:29.517Z,100208.45
2022-10-04T17:50:33.099Z,100216.70
2022-10-04T17:53:28.548Z,100217.13
2022-10-04T17:56:04.483Z,100224.56
2022-10-04T17:58:54.168Z,100221.37
2022-10-04T18:01:32.260Z,100222.03
2022-10-04T18:04:17.644Z,100226.23
2022-10-04T18:06:58.717Z,100224.92
2022-10-04T18:10:00.090Z,100234.48
2022-10-04T18:12:43.308Z,100239.64
2022-10-04T18:15:39.574Z,100242.61
2022-10-04T18:18:25.116Z,100241.15
2022-10-04T18:21:27.696Z,100245.70
2022-10-04T18:24:06.267Z,100251.09
2022-10-04T18:26:41.786Z,100255.64
2022-10-04T18:29:15.145Z,100258.09
2022-10-04T18:31:50.394Z,100257.21
2022-10-04T18:34:32.410Z,100257.29
2022-10-04T18:37:37.213Z,100265.06
2022-10-04T18:40:19.855Z,100271.03
2022-10-04T18:42:58.673Z,100273.50
2022-10-04T18:45:34.195Z,100271.53
2022-10-04T18:48:19.254Z,100280.54
2022-10-04T18:50:52.722Z,100277.30
2022-10-04T18:53:35.963Z,100278.99
2022-10-04T18:56:11.981Z,100279.33
2022-10-04T18:59:28.155Z,100286.72
2022-10-04T19:02:27.884Z,100286.72
2022-10-04T19:05:26.992Z,100294.58
2022-10-04T19:08:23.843Z,100298.00
2022-10-04T19:11:25.097Z,100299.57
2022-10-04T19:14:46.720Z,100306.03
2022-10-04T19:17:27.732Z,100304.22
2022-10-04T19:20:48.465Z,100315.42
2022-10-04T19:23:37.882Z,100313.56
2022-10-04T19:26:32.416Z,100315.09
2022-10-04T19:29:05.991Z,100319.70
2022-10-04T19:31:49.552Z,100319.12
2022-10-04T19:34:39.003Z,100321.99
2022-10-04T19:37:28.281Z,100321.99
2022-10-04T19:40:31.749Z,100316.93
2022-10-04T19:43:18.585Z,100318.08
2022-10-04T19:46:12.756Z,100320.83
2022-10-04T19:48:53.378Z,100319.69
2022-10-04T19:51:42.287Z,100316.74
2022-10-04T19:54:17.246Z,100326.95
2022-10-04T19:56:51.852Z,100334.33
2022-10-04T19:59:40.345Z,100332.69
2022-10-04T20:02:15.155Z,100338.72
2022-10-04T20:04:49.261Z,100335.22
2022-10-04T20:07:30.573Z,100341.16
2022-10-04T20:10:33.765Z,100341.50
2022-10-04T20:13:24.366Z,100343.14
2022-10-04T20:16:01.466Z,100341.87
2022-10-04T20:18:43.181Z,100344.18
2022-10-04T20:21:25.588Z,100347.76
2022-10-04T20:23:57.484Z,100355.34
2022-10-04T20:26:56.500Z,100364.31
2022-10-04T20:29:46.248Z,100358.83
2022-10-04T20:32:37.289Z,100355.49
2022-10-04T20:35:20.724Z,100356.95
2022-10-04T20:38:30.707Z,100359.81
2022-10-04T20:40:46.910Z,100352.59
2022-10-04T20:43:26.726Z,100350.22
2022-10-04T20:46:01.233Z,100353.22
2022-10-04T20:48:34.487Z,100355.77
2022-10-04T20:51:11.041Z,100362.30
2022-10-04T20:53:50.083Z,100358.30
2022-10-04T20:56:32.069Z,100358.12
2022-10-04T20:59:06.694Z,100360.55
2022-10-04T21:01:42.011Z,100357.77
2022-10-04T21:04:33.063Z,100357.25
2022-10-04T21:07:08.753Z,100362.72
2022-10-04T21:09:43.194Z,100365.53
2022-10-04T21:12:37.638Z,100366.60
2022-10-04T21:15:23.465Z,100365.50
2022-10-04T21:18:11.261Z,100364.42
2022-10-04T21:20:53.106Z,100362.94
2022-10-04T21:23:31.557Z,100366.44
2022-10-04T21:26:25.073Z,100360.83
2022-10-04T21:28:59.727Z,100362.52
2022-10-04T21:31:34.196Z,100361.12
2022-10-04T21:34:07.219Z,100366.77
2022-10-04T21:36:40.397Z,100365.27
2022-10-04T21:39:13.222Z,100363.22
2022-10-04T21:41:48.002Z,100366.44
2022-10-04T21:44:21.507Z,100376.52
2022-10-04T21:46:54.348Z,100380.06
2022-10-04T21:49:28.004Z,100377.91
2022-10-04T21:52:01.039Z,100375.39
2022-10-04T21:54:34.227Z,100374.64
2022-10-04T21:57:08.992Z,100376.55
2022-10-04T21:59:42.054Z,100366.34
2022-10-04T22:02:15.282Z,100369.17
2022-10-04T22:04:48.451Z,100375.88
2022-10-04T22:07:21.964Z,100379.52
2022-10-04T22:09:55.156Z,100379.22
2022-10-04T22:12:28.154Z,100379.06
2022-10-04T22:15:01.117Z,100373.24
2022-10-04T22:17:35.222Z,100378.97
2022-10-04T22:20:09.142Z,100372.92
2022-10-04T22:22:42.177Z,100375.63
2022-10-04T22:25:21.569Z,100374.33
2022-10-04T22:27:55.166Z,100376.05
2022-10-04T22:30:32.715Z,100375.22
2022-10-04T22:33:08.805Z,100369.63
2022-10-04T22:35:41.679Z,100377.63
2022-10-04T22:38:14.642Z,100377.00
2022-10-04T22:40:47.347Z,100381.61
2022-10-04T22:43:20.610Z,100380.41
2022-10-04T22:45:54.275Z,100384.41
2022-10-04T22:48:28.639Z,100385.63
2022-10-04T22:51:03.522Z,100382.50
2022-10-04T22:53:36.663Z,100390.33
2022-10-04T22:56:09.777Z,100384.92
2022-10-04T22:58:43.750Z,100391.77
2022-10-04T23:01:19.342Z,100396.37
2022-10-04T23:03:52.291Z,100402.70
2022-10-04T23:06:25.775Z,100404.33
2022-10-04T23:08:59.662Z,100401.62
2022-10-04T23:11:35.522Z,100404.03
2022-10-04T23:14:08.655Z,100408.27
2022-10-04T23:16:43.895Z,100409.05
2022-10-04T23:19:20.471Z,100404.77
2022-10-04T23:21:53.795Z,100407.38
2022-10-04T23:24:26.873Z,100404.28
2022-10-04T23:26:59.597Z,100406.91
2022-10-04T23:29:35.431Z,100413.41
2022-10-04T23:32:19.322Z,100406.60
2022-10-04T23:34:56.668Z,100413.84
2022-10-04T23:37:31.201Z,100411.52
2022-10-04T23:40:04.267Z,100417.05
2022-10-04T23:42:37.332Z,100409.34
2022-10-04T23:45:20.486Z,100410.34
2022-10-04T23:47:58.805Z,100406.75
2022-10-04T23:50:37.603Z,100399.20
2022-10-04T23:53:14.609Z,100406.64
2022-10-04T23:55:49.193Z,100408.74
2022-10-04T23:58:26.330Z,100408.74
